.
WxDataArchive / Data Records for 2014-09-29
2014-09-28 September 2014 2014-09-30

Data Records for Monday, 29 September 2014

Time	Temp	Chill	HIndex	Humid	Dewpt	 Wind 	HiWind	WindDir	Rain 	Barom
-----	----	-----	------	-----	-----	------	------	-------	-----	-----
00:00	58.7	58.7	58.7	86	54.5	0	1	90	0.00	30.026 
00:05	58.6	58.6	58.6	86	54.4	0	0	---	0.00	30.026 
00:10	58.6	58.6	58.6	86	54.4	0	0	---	0.00	30.026 
00:15	58.4	58.4	58.4	87	54.5	0	0	---	0.00	30.021 
00:20	58.6	58.6	58.6	87	54.7	0	0	---	0.00	30.021 
00:25	58.6	58.6	58.6	87	54.7	0	0	---	0.00	30.021 
00:30	58.6	58.6	58.6	87	54.7	0	0	---	0.00	30.013 
00:35	58.7	58.7	58.7	87	54.8	0	0	---	0.00	30.013 
00:40	58.7	58.7	58.7	87	54.8	0	0	---	0.00	30.013 
00:45	58.7	58.7	58.7	87	54.8	0	0	---	0.00	30.009 
00:50	58.7	58.7	58.7	87	54.8	0	0	---	0.00	30.009 
00:55	58.7	58.7	58.7	87	54.8	0	0	---	0.00	30.009 
01:00	58.6	58.6	58.6	87	54.7	0	0	---	0.00	30.008 
01:05	58.6	58.6	58.6	87	54.7	0	0	---	0.00	30.008 
01:10	58.4	58.4	58.4	87	54.5	0	0	---	0.00	30.008 
01:15	58.4	58.4	58.4	87	54.5	0	0	---	0.00	30.008 
01:20	58.3	58.3	58.3	87	54.4	0	0	---	0.00	30.008 
01:25	58.1	58.1	58.1	87	54.2	0	0	---	0.00	30.008 
01:30	58.0	58.0	58.0	87	54.1	0	0	---	0.00	30.006 
01:35	57.8	57.8	57.8	87	54.0	0	0	---	0.00	30.006 
01:40	57.6	57.6	57.6	87	53.8	0	0	---	0.00	30.006 
01:45	57.5	57.5	57.5	87	53.7	0	0	---	0.00	30.004 
01:50	57.2	57.2	57.2	87	53.4	0	0	---	0.00	30.004 
01:55	57.0	57.0	57.0	88	53.5	0	0	---	0.00	30.004 
02:00	56.9	56.9	56.9	88	53.4	0	0	---	0.00	30.003 
02:05	56.7	56.7	56.7	88	53.2	0	0	---	0.00	30.003 
02:10	56.6	56.6	56.6	88	53.1	0	0	---	0.00	30.003 
02:15	56.5	56.5	56.5	89	53.3	0	0	---	0.00	29.999 
02:20	56.3	56.3	56.3	89	53.1	0	0	---	0.00	29.999 
02:25	56.2	56.2	56.2	89	53.0	0	0	---	0.00	29.999 
02:30	56.0	56.0	56.0	89	52.8	0	0	---	0.00	30.001 
02:35	55.9	55.9	55.9	89	52.7	0	0	---	0.00	30.001 
02:40	55.7	55.7	55.7	89	52.5	0	0	---	0.00	30.001 
02:45	55.6	55.6	55.6	90	52.7	0	0	---	0.00	30.001 
02:50	55.4	55.4	55.4	90	52.5	0	0	---	0.00	30.001 
02:55	55.3	55.3	55.3	90	52.4	0	0	---	0.00	30.001 
03:00	55.1	55.1	55.1	90	52.2	0	0	---	0.00	30.000 
03:05	55.1	55.1	55.1	90	52.2	0	0	---	0.00	30.000 
03:10	55.0	55.0	55.0	91	52.4	0	0	---	0.00	30.000 
03:15	54.8	54.8	54.8	91	52.2	0	0	---	0.00	29.994 
03:20	54.7	54.7	54.7	91	52.1	0	0	---	0.00	29.994 
03:25	54.7	54.7	54.7	91	52.1	0	0	---	0.00	29.994 
03:30	54.5	54.5	54.5	91	51.9	0	0	---	0.00	29.993 
03:35	54.5	54.5	54.5	91	51.9	0	0	---	0.00	29.993 
03:40	54.4	54.4	54.4	91	51.8	0	0	---	0.00	29.993 
03:45	54.2	54.2	54.2	91	51.6	0	0	---	0.00	29.995 
03:50	54.2	54.2	54.2	92	51.9	0	0	---	0.00	29.995 
03:55	54.1	54.1	54.1	92	51.8	0	0	---	0.00	29.995 
04:00	53.9	53.9	53.9	92	51.6	0	0	---	0.00	29.994 
04:05	53.9	53.9	53.9	92	51.6	0	0	---	0.00	29.994 
04:10	53.9	53.9	53.9	92	51.6	0	0	---	0.00	29.994 
04:15	53.9	53.9	53.9	92	51.6	0	0	---	0.00	29.995 
04:20	53.9	53.9	53.9	92	51.6	0	0	---	0.00	29.995 
04:25	53.9	53.9	53.9	92	51.6	0	0	---	0.00	29.995 
04:30	53.8	53.8	53.8	92	51.5	0	0	---	0.00	29.993 
04:35	53.6	53.6	53.6	92	51.3	0	0	---	0.00	29.993 
04:40	53.5	53.5	53.5	92	51.2	0	0	---	0.00	29.993 
04:45	53.3	53.3	53.3	92	51.0	0	0	---	0.00	29.991 
04:50	53.2	53.2	53.2	92	50.9	0	0	---	0.00	29.991 
04:55	52.9	52.9	52.9	92	50.6	0	0	---	0.00	29.991 
05:00	52.9	52.9	52.9	92	50.6	0	0	---	0.00	29.989 
05:05	52.9	52.9	52.9	92	50.6	0	0	---	0.00	29.989 
05:10	52.8	52.8	52.8	93	50.8	0	0	---	0.00	29.989 
05:15	52.8	52.8	52.8	93	50.8	0	0	---	0.00	29.985 
05:20	52.6	52.6	52.6	93	50.6	0	0	---	0.00	29.985 
05:25	52.6	52.6	52.6	93	50.6	0	0	---	0.00	29.985 
05:30	52.6	52.6	52.6	93	50.6	0	0	---	0.00	29.987 
05:35	52.5	52.5	52.5	93	50.5	0	0	---	0.00	29.987 
05:40	52.5	52.5	52.5	93	50.5	0	0	---	0.00	29.987 
05:45	52.5	52.5	52.5	93	50.5	0	0	---	0.00	29.991 
05:50	52.5	52.5	52.5	93	50.5	0	0	---	0.00	29.991 
05:55	52.5	52.5	52.5	93	50.5	0	0	---	0.00	29.991 
06:00	52.3	52.3	52.3	93	50.3	0	0	---	0.00	29.992 
06:05	52.3	52.3	52.3	93	50.3	0	0	---	0.00	29.992 
06:10	52.2	52.2	52.2	93	50.2	0	0	---	0.00	29.992 
06:15	52.0	52.0	52.0	93	50.0	0	0	---	0.00	29.995 
06:20	52.2	52.2	52.2	93	50.2	0	0	---	0.00	29.995 
06:25	52.3	52.3	52.3	94	50.6	0	0	---	0.00	29.995 
06:30	52.3	52.3	52.3	94	50.6	0	0	---	0.00	29.996 
06:35	52.3	52.3	52.3	93	50.3	0	0	---	0.00	29.996 
06:40	52.2	52.2	52.2	93	50.2	0	0	---	0.00	29.996 
06:45	52.2	52.2	52.2	93	50.2	0	0	---	0.00	29.997 
06:50	52.2	52.2	52.2	93	50.2	0	0	---	0.00	29.997 
06:55	52.0	52.0	52.0	93	50.0	0	0	---	0.00	29.997 
07:00	51.9	51.9	51.9	93	49.9	0	0	---	0.00	29.997 
07:05	51.9	51.9	51.9	93	49.9	0	0	---	0.00	29.997 
07:10	51.9	51.9	51.9	94	50.2	0	0	---	0.00	29.997 
07:15	51.9	51.9	51.9	94	50.2	0	0	---	0.00	30.004 
07:20	51.7	51.7	51.7	93	49.7	0	0	---	0.00	30.004 
07:25	51.7	51.7	51.7	94	50.0	0	0	---	0.00	30.004 
07:30	51.7	51.7	51.7	94	50.0	0	0	---	0.00	30.001 
07:35	51.6	51.6	51.6	93	49.6	0	0	---	0.00	30.001 
07:40	51.4	51.4	51.4	94	49.7	0	0	---	0.00	30.001 
07:45	51.4	51.4	51.4	94	49.7	0	0	---	0.00	30.004 
07:50	51.4	51.4	51.4	94	49.7	0	0	---	0.00	30.004 
07:55	51.6	51.6	51.6	94	49.9	0	0	---	0.00	30.004 
08:00	51.7	51.7	51.7	94	50.0	0	0	---	0.00	30.001 
08:05	51.7	51.7	51.7	94	50.0	0	0	---	0.00	30.001 
08:10	51.7	51.7	51.7	94	50.0	0	0	---	0.00	30.001 
08:15	51.9	51.9	51.9	94	50.2	0	0	---	0.00	30.002 
08:20	51.9	51.9	51.9	94	50.2	0	0	---	0.00	30.002 
08:25	52.0	52.0	52.0	94	50.3	0	0	---	0.00	30.002 
08:30	52.2	52.2	52.2	94	50.5	0	0	---	0.00	30.002 
08:35	52.5	52.5	52.5	94	50.8	0	0	---	0.00	30.002 
08:40	52.9	52.9	52.9	94	51.2	0	0	---	0.00	30.002 
08:45	53.3	53.3	53.3	95	51.9	0	0	---	0.00	30.005 
08:50	54.2	54.2	54.2	95	52.8	0	0	---	0.00	30.005 
08:55	54.8	54.8	54.8	95	53.4	0	0	---	0.00	30.005 
09:00	55.6	55.6	55.6	95	54.2	0	0	---	0.00	30.005 
09:05	56.3	56.3	56.3	95	54.9	0	0	---	0.00	30.005 
09:10	57.0	57.0	57.0	95	55.6	0	0	---	0.00	30.005 
09:15	57.8	57.8	57.8	94	56.1	0	0	---	0.00	30.004 
09:20	58.4	58.4	58.4	93	56.4	0	0	---	0.00	30.004 
09:25	59.0	59.0	59.0	92	56.7	0	0	---	0.00	30.004 
09:30	59.5	59.5	59.5	92	57.2	0	0	---	0.00	30.001 
09:35	60.1	60.1	60.1	90	57.2	0	0	---	0.00	30.001 
09:40	60.7	60.7	60.7	89	57.4	0	0	---	0.00	30.001 
09:45	61.5	61.5	61.5	87	57.6	0	1	90	0.00	30.001 
09:50	62.1	62.1	62.1	85	57.5	0	1	90	0.00	30.001 
09:55	62.9	62.9	62.9	83	57.7	0	1	90	0.00	30.001 
10:00	63.5	63.5	63.5	80	57.2	0	2	90	0.00	30.005 
10:05	64.2	64.2	64.2	79	57.5	0	1	90	0.00	30.005 
10:10	64.8	64.8	64.8	77	57.4	0	1	90	0.00	30.005 
10:15	65.5	65.5	65.5	77	58.1	0	1	90	0.00	30.003 
10:20	66.3	66.3	66.3	75	58.1	0	1	90	0.00	30.003 
10:25	67.1	67.1	67.1	73	58.1	0	1	90	0.00	30.003 
10:30	67.6	67.6	67.6	70	57.5	0	2	90	0.00	29.997 
10:35	68.6	68.6	68.6	69	58.0	0	1	90	0.00	29.997 
10:40	69.3	69.3	69.3	65	57.0	0	2	90	0.00	29.997 
10:45	69.8	69.8	69.8	62	56.2	0	2	90	0.00	29.993 
10:50	70.4	70.4	70.4	62	56.7	0	2	90	0.00	29.993 
10:55	70.9	70.9	70.9	60	56.3	0	1	90	0.00	29.993 
11:00	71.3	71.3	71.3	58	55.7	0	3	90	0.00	29.994 
11:05	71.5	71.5	71.5	56	55.0	0	3	90	0.00	29.994 
11:10	71.6	71.6	71.6	58	56.0	1	3	90	0.00	29.994 
11:15	72.0	72.0	72.0	58	56.4	0	2	90	0.00	29.994 
11:20	72.3	72.3	72.3	55	55.2	0	3	270	0.00	29.994 
11:25	72.7	72.7	72.7	57	56.6	0	1	270	0.00	29.994 
11:30	73.2	73.2	73.2	56	56.5	0	1	270	0.00	29.991 
11:35	73.3	73.3	73.3	56	56.6	0	3	270	0.00	29.991 
11:40	73.3	73.3	73.3	54	55.6	1	3	270	0.00	29.991 
11:45	73.5	73.5	73.5	52	54.8	0	2	270	0.00	29.988 
11:50	73.7	73.7	73.7	54	56.0	0	1	270	0.00	29.988 
11:55	73.5	73.5	73.5	52	54.8	0	2	270	0.00	29.988 
12:00	73.9	73.9	73.9	53	55.7	1	2	270	0.00	29.986 
12:05	74.0	74.0	74.0	52	55.2	1	3	270	0.00	29.986 
12:10	74.0	74.0	74.0	52	55.2	1	4	270	0.00	29.986 
12:15	74.0	74.0	74.0	52	55.2	1	3	270	0.00	29.985 
12:20	74.0	74.0	74.0	53	55.8	1	3	315	0.00	29.985 
12:25	74.0	74.0	74.0	50	54.2	1	3	315	0.00	29.985 
12:30	74.4	74.4	74.4	50	54.5	1	2	315	0.00	29.983 
12:35	74.6	74.6	74.6	51	55.3	1	2	315	0.00	29.983 
12:40	74.7	74.7	74.7	50	54.8	1	3	292	0.00	29.983 
12:45	74.9	74.9	74.9	50	55.0	1	3	315	0.00	29.976 
12:50	74.9	74.9	74.9	48	53.9	1	3	315	0.00	29.976 
12:55	74.9	74.9	74.9	48	53.9	1	4	315	0.00	29.976 
13:00	74.9	74.9	74.9	47	53.3	1	2	315	0.00	29.975 
13:05	74.9	74.9	74.9	48	53.9	0	2	315	0.00	29.975 
13:10	74.9	74.9	74.9	49	54.4	1	3	315	0.00	29.975 
13:15	75.1	75.1	77.7	48	54.1	1	4	315	0.00	29.972 
13:20	75.4	75.4	77.8	48	54.3	0	2	315	0.00	29.972 
13:25	75.4	75.4	77.8	46	53.2	1	3	315	0.00	29.972 
13:30	75.8	75.8	77.9	46	53.5	1	3	315	0.00	29.966 
13:35	75.8	75.8	77.9	46	53.5	0	2	315	0.00	29.966 
13:40	76.0	76.0	78.0	46	53.7	0	2	315	0.00	29.966 
13:45	76.1	76.1	78.1	50	56.1	1	4	315	0.00	29.961 
13:50	76.1	76.1	78.1	47	54.4	1	3	315	0.00	29.961 
13:55	76.1	76.1	78.0	46	53.8	0	2	315	0.00	29.961 
14:00	76.1	76.1	78.0	46	53.8	1	2	315	0.00	29.954 
14:05	76.3	76.3	78.2	47	54.6	0	1	315	0.00	29.954 
14:10	76.3	76.3	78.1	44	52.8	1	4	270	0.00	29.954 
14:15	76.3	76.3	78.1	45	53.4	2	5	270	0.00	29.949 
14:20	76.1	76.1	78.0	45	53.2	1	4	270	0.00	29.949 
14:25	76.3	76.3	78.1	46	54.0	1	3	270	0.00	29.949 
14:30	76.3	76.3	78.2	47	54.6	0	2	270	0.00	29.942 
14:35	76.5	76.5	78.2	46	54.2	1	3	270	0.00	29.942 
14:40	76.7	76.7	78.3	46	54.3	1	5	338	0.00	29.942 
14:45	76.8	76.8	78.3	44	53.2	1	4	315	0.00	29.932 
14:50	76.7	76.7	78.2	43	52.5	2	4	315	0.00	29.932 
14:55	76.8	76.8	78.3	45	53.8	0	2	315	0.00	29.932 
15:00	77.0	77.0	78.4	43	52.8	1	4	315	0.00	29.930 
15:05	77.0	77.0	78.4	43	52.8	1	4	292	0.00	29.930 
15:10	77.0	77.0	78.4	43	52.8	1	4	292	0.00	29.930 
15:15	76.8	76.8	78.2	42	51.9	0	2	292	0.00	29.929 
15:20	76.8	76.8	78.3	44	53.2	1	3	292	0.00	29.929 
15:25	77.2	77.2	78.5	43	52.9	1	2	292	0.00	29.929 
15:30	77.4	77.4	78.6	43	53.1	0	3	292	0.00	29.921 
15:35	77.6	77.6	78.6	41	52.0	0	2	292	0.00	29.921 
15:40	77.6	77.6	78.6	41	52.0	0	4	292	0.00	29.921 
15:45	77.4	77.4	78.5	41	51.8	2	4	292	0.00	29.919 
15:50	77.6	77.6	78.5	40	51.3	1	4	292	0.00	29.919 
15:55	77.7	77.7	78.6	40	51.4	2	5	292	0.00	29.919 
16:00	77.7	77.7	78.6	41	52.1	0	4	292	0.00	29.915 
16:05	77.6	77.6	78.5	39	50.7	2	4	292	0.00	29.915 
16:10	77.6	77.6	78.5	39	50.7	0	2	292	0.00	29.915 
16:15	77.4	77.4	78.4	40	51.2	1	3	315	0.00	29.914 
16:20	77.4	77.4	78.3	38	49.8	1	3	315	0.00	29.914 
16:25	77.4	77.4	78.4	40	51.2	0	1	315	0.00	29.914 
16:30	77.4	77.4	78.4	39	50.5	0	1	315	0.00	29.914 
16:35	77.6	77.6	78.4	38	50.0	1	2	315	0.00	29.914 
16:40	77.7	77.7	78.4	37	49.3	1	5	292	0.00	29.914 
16:45	77.9	77.9	78.6	38	50.2	1	4	292	0.00	29.912 
16:50	77.9	77.9	78.4	36	48.8	0	1	292	0.00	29.912 
16:55	77.9	77.9	78.6	38	50.2	1	4	292	0.00	29.912 
17:00	78.1	78.1	78.7	38	50.4	1	2	292	0.00	29.908 
17:05	77.9	77.9	78.6	38	50.2	1	4	292	0.00	29.908 
17:10	77.7	77.7	78.5	38	50.0	0	2	292	0.00	29.908 
17:15	77.7	77.7	78.5	39	50.7	1	3	292	0.00	29.906 
17:20	77.7	77.7	78.5	39	50.7	1	3	292	0.00	29.906 
17:25	77.9	77.9	78.6	39	50.9	1	4	292	0.00	29.906 
17:30	77.7	77.7	78.5	39	50.7	1	3	292	0.00	29.906 
17:35	77.7	77.7	78.5	39	50.7	1	3	292	0.00	29.906 
17:40	77.7	77.7	78.5	38	50.0	1	3	292	0.00	29.906 
17:45	77.6	77.6	78.5	39	50.7	0	2	292	0.00	29.905 
17:50	77.6	77.6	78.5	40	51.3	0	2	292	0.00	29.905 
17:55	77.4	77.4	78.5	41	51.8	0	1	292	0.00	29.905 
18:00	77.4	77.4	78.4	40	51.2	0	1	292	0.00	29.907 
18:05	77.4	77.4	78.5	41	51.8	0	2	292	0.00	29.907 
18:10	77.4	77.4	78.5	42	52.5	0	2	292	0.00	29.907 
18:15	77.2	77.2	78.4	42	52.3	0	1	292	0.00	29.904 
18:20	77.0	77.0	78.3	42	52.1	0	1	292	0.00	29.904 
18:25	76.8	76.8	78.3	43	52.6	1	3	292	0.00	29.904 
18:30	76.7	76.7	78.2	43	52.5	0	2	292	0.00	29.902 
18:35	76.5	76.5	78.1	43	52.3	0	2	292	0.00	29.902 
18:40	76.3	76.3	78.1	45	53.4	0	1	292	0.00	29.902 
18:45	76.1	76.1	78.0	45	53.2	0	1	292	0.00	29.902 
18:50	75.8	75.8	77.9	46	53.5	0	1	292	0.00	29.902 
18:55	75.6	75.6	77.8	46	53.3	0	1	292	0.00	29.902 
19:00	75.4	75.4	77.8	47	53.7	0	0	---	0.00	29.903 
19:05	75.1	75.1	77.7	48	54.1	0	0	---	0.00	29.903 
19:10	74.7	74.7	74.7	49	54.3	0	0	---	0.00	29.903 
19:15	74.2	74.2	74.2	51	54.9	0	0	---	0.00	29.903 
19:20	73.7	73.7	73.7	52	55.0	0	0	---	0.00	29.903 
19:25	73.2	73.2	73.2	53	55.0	0	0	---	0.00	29.903 
19:30	72.5	72.5	72.5	54	54.9	0	0	---	0.00	29.905 
19:35	72.0	72.0	72.0	55	54.9	0	0	---	0.00	29.905 
19:40	71.3	71.3	71.3	58	55.7	0	0	---	0.00	29.905 
19:45	70.6	70.6	70.6	59	55.6	0	0	---	0.00	29.902 
19:50	69.9	69.9	69.9	60	55.4	0	0	---	0.00	29.902 
19:55	69.4	69.4	69.4	61	55.4	0	0	---	0.00	29.902 
20:00	68.9	68.9	68.9	63	55.8	0	0	---	0.00	29.899 
20:05	68.4	68.4	68.4	64	55.7	0	0	---	0.00	29.899 
20:10	67.9	67.9	67.9	65	55.7	0	0	---	0.00	29.899 
20:15	67.4	67.4	67.4	66	55.6	0	0	---	0.00	29.892 
20:20	67.1	67.1	67.1	67	55.8	0	0	---	0.00	29.892 
20:25	66.6	66.6	66.6	69	56.1	0	0	---	0.00	29.892 
20:30	66.1	66.1	66.1	70	56.0	0	0	---	0.00	29.894 
20:35	65.8	65.8	65.8	71	56.1	0	0	---	0.00	29.894 
20:40	65.5	65.5	65.5	72	56.2	0	0	---	0.00	29.894 
20:45	65.0	65.0	65.0	73	56.1	0	0	---	0.00	29.899 
20:50	64.7	64.7	64.7	74	56.2	0	0	---	0.00	29.899 
20:55	64.5	64.5	64.5	75	56.4	0	0	---	0.00	29.899 
21:00	64.2	64.2	64.2	76	56.5	0	0	---	0.00	29.902 
21:05	63.9	63.9	63.9	77	56.5	0	0	---	0.00	29.902 
21:10	63.7	63.7	63.7	77	56.3	0	0	---	0.00	29.902 
21:15	63.4	63.4	63.4	78	56.4	0	0	---	0.00	29.897 
21:20	63.2	63.2	63.2	79	56.6	0	0	---	0.00	29.897 
21:25	63.1	63.1	63.1	79	56.5	0	0	---	0.00	29.897 
21:30	62.7	62.7	62.7	80	56.4	0	0	---	0.00	29.901 
21:35	62.6	62.6	62.6	80	56.3	0	0	---	0.00	29.901 
21:40	62.4	62.4	62.4	81	56.5	0	0	---	0.00	29.901 
21:45	62.1	62.1	62.1	81	56.2	0	0	---	0.00	29.896 
21:50	62.0	62.0	62.0	82	56.4	0	0	---	0.00	29.896 
21:55	61.8	61.8	61.8	82	56.2	0	0	---	0.00	29.896 
22:00	61.6	61.6	61.6	83	56.4	0	0	---	0.00	29.897 
22:05	61.5	61.5	61.5	83	56.3	0	0	---	0.00	29.897 
22:10	61.3	61.3	61.3	83	56.1	0	0	---	0.00	29.897 
22:15	61.2	61.2	61.2	84	56.3	0	0	---	0.00	29.889 
22:20	61.0	61.0	61.0	84	56.1	0	0	---	0.00	29.889 
22:25	60.9	60.9	60.9	84	56.0	0	0	---	0.00	29.889 
22:30	60.7	60.7	60.7	84	55.8	0	0	---	0.00	29.887 
22:35	60.7	60.7	60.7	85	56.2	0	0	---	0.00	29.887 
22:40	60.5	60.5	60.5	85	56.0	0	0	---	0.00	29.887 
22:45	60.4	60.4	60.4	86	56.2	0	0	---	0.00	29.887 
22:50	60.4	60.4	60.4	86	56.2	0	0	---	0.00	29.887 
22:55	60.2	60.2	60.2	86	56.0	0	0	---	0.00	29.887 
23:00	60.1	60.1	60.1	87	56.2	0	0	---	0.00	29.884 
23:05	59.9	59.9	59.9	87	56.0	0	0	---	0.00	29.884 
23:10	59.9	59.9	59.9	87	56.0	0	0	---	0.00	29.884 
23:15	59.8	59.8	59.8	88	56.2	0	0	---	0.00	29.881 
23:20	59.8	59.8	59.8	88	56.2	0	0	---	0.00	29.881 
23:25	59.8	59.8	59.8	88	56.2	0	0	---	0.00	29.881 
23:30	59.6	59.6	59.6	88	56.0	0	0	---	0.00	29.874 
23:35	59.6	59.6	59.6	88	56.0	0	0	---	0.00	29.874 
23:40	59.5	59.5	59.5	88	55.9	0	0	---	0.00	29.874 
23:45	59.5	59.5	59.5	89	56.3	0	0	---	0.00	29.870 
23:50	59.5	59.5	59.5	89	56.3	0	0	---	0.00	29.870 
23:55	59.3	59.3	59.3	89	56.1	0	0	---	0.00	29.870 

CoCoRaHS
IN-AL-39
A2 Web Hosting
Creative Commons License
GoDaddy
search engine by freefind advanced

loaded 2018-11-14 03:47:56 • last modified 2010-11-18 10:43:29
Privacy PolicyDisclaimer
• wx.awcolley.com is powered by PmWiki v.2002016 •
• all content (unless otherwise noted) © 2018 A W Colley